createdAt,value
2022-12-14T00:02:32.594Z,2.05
2022-12-14T00:07:35.321Z,0.50
2022-12-14T00:12:38.314Z,1.95
2022-12-14T00:17:40.949Z,0.45
2022-12-14T00:22:43.717Z,1.33
2022-12-14T00:27:47.284Z,0.57
2022-12-14T00:32:50.118Z,0.55
2022-12-14T00:37:52.994Z,1.00
2022-12-14T00:42:55.819Z,1.13
2022-12-14T00:47:59.322Z,0.82
2022-12-14T00:53:01.958Z,0.75
2022-12-14T00:58:04.769Z,1.38
2022-12-14T01:03:09.638Z,0.38
2022-12-14T01:08:15.199Z,2.15
2022-12-14T01:13:18.448Z,0.82
2022-12-14T01:18:21.118Z,0.50
2022-12-14T01:23:24.146Z,0.50
2022-12-14T01:28:27.117Z,1.45
2022-12-14T01:33:30.069Z,0.65
2022-12-14T01:38:33.107Z,0.70
2022-12-14T01:44:08.014Z,0.93
2022-12-14T01:49:31.607Z,0.98
2022-12-14T01:54:37.213Z,1.52
2022-12-14T01:59:42.556Z,1.08
2022-12-14T02:04:50.731Z,1.52
2022-12-14T02:09:55.121Z,2.33
2022-12-14T02:14:58.135Z,1.58
2022-12-14T02:20:00.858Z,1.85
2022-12-14T02:25:31.847Z,2.28
2022-12-14T02:30:40.197Z,1.25
2022-12-14T02:35:55.904Z,0.60
2022-12-14T02:41:02.704Z,1.20
2022-12-14T02:46:29.403Z,0.32
2022-12-14T02:51:41.304Z,0.57
2022-12-14T02:56:49.255Z,1.38
2022-12-14T03:01:52.905Z,1.08
2022-12-14T03:07:24.932Z,1.67
2022-12-14T03:12:27.945Z,1.05
2022-12-14T03:17:33.092Z,1.48
2022-12-14T03:22:42.644Z,0.47
2022-12-14T03:28:06.243Z,1.33
2022-12-14T03:33:14.170Z,1.10
2022-12-14T03:38:54.139Z,3.08
2022-12-14T03:44:29.454Z,1.35
2022-12-14T03:50:13.781Z,0.88
2022-12-14T03:55:28.537Z,1.95
2022-12-14T04:00:36.297Z,1.02
2022-12-14T04:06:03.612Z,0.40
2022-12-14T04:11:25.971Z,1.48
2022-12-14T04:16:52.710Z,0.93
2022-12-14T04:22:23.091Z,2.15
2022-12-14T04:27:37.176Z,2.17
2022-12-14T04:32:56.375Z,1.65
2022-12-14T04:38:10.156Z,2.72
2022-12-14T04:43:17.700Z,3.78
2022-12-14T04:48:30.001Z,0.98
2022-12-14T04:53:35.335Z,0.50
2022-12-14T04:58:38.764Z,3.00
2022-12-14T05:03:50.924Z,0.50
2022-12-14T05:09:22.800Z,1.20
2022-12-14T05:14:38.857Z,0.28
2022-12-14T05:19:51.499Z,2.72
2022-12-14T05:24:54.402Z,1.25
2022-12-14T05:29:57.272Z,5.18
2022-12-14T05:34:59.961Z,1.10
2022-12-14T05:40:02.740Z,1.27
2022-12-14T05:45:06.670Z,2.40
2022-12-14T05:50:09.554Z,2.10
2022-12-14T05:55:12.197Z,3.05
2022-12-14T06:00:15.849Z,4.07
2022-12-14T06:05:18.606Z,3.45
2022-12-14T06:10:21.231Z,5.70
2022-12-14T06:15:23.896Z,3.13
2022-12-14T06:20:27.693Z,0.88
2022-12-14T06:25:30.371Z,0.30
2022-12-14T06:30:33.041Z,5.13
2022-12-14T06:35:35.912Z,1.67
2022-12-14T06:40:38.617Z,1.00
2022-12-14T06:45:41.356Z,2.28
2022-12-14T06:50:44.082Z,2.58
2022-12-14T06:55:49.451Z,0.60
2022-12-14T07:00:52.220Z,5.68
2022-12-14T07:05:58.587Z,10.10
2022-12-14T07:11:05.783Z,2.72
2022-12-14T07:16:10.639Z,2.63
2022-12-14T07:21:15.166Z,5.30
2022-12-14T07:26:20.474Z,1.70
2022-12-14T07:31:25.196Z,5.72
2022-12-14T07:36:29.642Z,1.15
2022-12-14T07:41:32.819Z,0.35
2022-12-14T07:46:38.406Z,0.93
2022-12-14T07:51:46.137Z,5.95
2022-12-14T07:56:48.769Z,4.07
2022-12-14T08:01:53.694Z,0.47
2022-12-14T08:06:57.905Z,0.77
2022-12-14T08:12:00.596Z,3.78
2022-12-14T08:17:03.247Z,2.80
2022-12-14T08:22:05.926Z,0.85
2022-12-14T08:27:08.606Z,1.08
2022-12-14T08:32:11.487Z,5.78
2022-12-14T08:37:14.201Z,1.38
2022-12-14T08:42:16.911Z,2.00
2022-12-14T08:47:19.805Z,2.78
2022-12-14T08:52:22.749Z,0.88
2022-12-14T08:57:25.799Z,2.72
2022-12-14T09:02:28.627Z,1.80
2022-12-14T09:07:32.216Z,3.22
2022-12-14T09:12:35.911Z,4.03
2022-12-14T09:17:38.685Z,2.70
2022-12-14T09:22:41.423Z,4.63
2022-12-14T09:27:44.210Z,2.78
2022-12-14T09:32:50.697Z,3.78
2022-12-14T09:37:53.606Z,6.10
2022-12-14T09:43:01.727Z,6.70
2022-12-14T09:48:13.341Z,4.15
2022-12-14T09:53:16.540Z,5.50
2022-12-14T09:58:28.567Z,2.17
2022-12-14T10:03:37.738Z,3.50
2022-12-14T10:09:00.290Z,5.55
2022-12-14T10:14:42.628Z,6.90
2022-12-14T10:19:59.245Z,5.15
2022-12-14T10:25:05.877Z,4.40
2022-12-14T10:30:18.861Z,3.65
2022-12-14T10:35:34.997Z,1.17
2022-12-14T10:40:43.844Z,9.00
2022-12-14T10:46:19.333Z,8.95
2022-12-14T10:51:48.152Z,2.40
2022-12-14T10:56:51.678Z,1.40
2022-12-14T11:02:16.015Z,2.92
2022-12-14T11:07:37.207Z,2.75
2022-12-14T11:12:39.958Z,2.40
2022-12-14T11:17:44.622Z,4.45
2022-12-14T11:22:52.780Z,7.15
2022-12-14T11:27:55.743Z,8.77
2022-12-14T11:32:58.488Z,3.90
2022-12-14T11:38:01.824Z,5.60
2022-12-14T11:43:05.080Z,3.97
2022-12-14T11:48:22.005Z,2.33
2022-12-14T11:53:24.781Z,5.82
2022-12-14T11:58:37.020Z,8.63
2022-12-14T12:03:50.199Z,7.05
2022-12-14T12:08:58.201Z,39.50
2022-12-14T12:14:11.597Z,7.50
2022-12-14T12:19:25.635Z,6.38
2022-12-14T12:24:38.792Z,5.57
2022-12-14T12:29:57.826Z,2.50
2022-12-14T12:35:11.781Z,12.57
2022-12-14T12:40:23.471Z,11.60
2022-12-14T12:45:40.295Z,17.45
2022-12-14T12:50:50.279Z,8.82
2022-12-14T12:55:56.176Z,10.23
2022-12-14T13:01:01.476Z,10.77
2022-12-14T13:06:30.995Z,9.32
2022-12-14T13:11:39.176Z,7.72
2022-12-14T13:16:42.630Z,7.72
2022-12-14T13:21:51.306Z,9.23
2022-12-14T13:27:13.792Z,8.35
2022-12-14T13:32:51.353Z,9.30
2022-12-14T13:38:13.192Z,16.25
2022-12-14T13:43:51.922Z,6.80
2022-12-14T13:48:57.217Z,6.10
2022-12-14T13:54:03.335Z,10.57
2022-12-14T13:59:51.013Z,14.93
2022-12-14T14:05:15.252Z,6.57
2022-12-14T14:10:51.293Z,15.35
2022-12-14T14:21:52.554Z,11.65
2022-12-14T14:27:12.190Z,8.77
2022-12-14T14:32:44.308Z,6.63
2022-12-14T14:37:55.521Z,5.85
2022-12-14T14:43:06.340Z,11.07
2022-12-14T14:48:21.633Z,8.50
2022-12-14T14:53:31.119Z,9.30
2022-12-14T14:58:39.082Z,12.40
2022-12-14T15:03:54.113Z,18.02
2022-12-14T15:09:12.883Z,13.02
2022-12-14T15:14:35.937Z,18.40
2022-12-14T15:19:39.116Z,19.65
2022-12-14T15:24:43.763Z,16.42
2022-12-14T15:29:47.421Z,13.32
2022-12-14T15:34:59.416Z,13.98
2022-12-14T15:40:05.361Z,5.47
2022-12-14T15:45:14.994Z,8.02
2022-12-14T15:50:30.640Z,18.57
2022-12-14T15:55:39.761Z,11.10
2022-12-14T16:00:44.970Z,10.27
2022-12-14T16:05:47.952Z,13.27
2022-12-14T16:10:52.261Z,13.15
2022-12-14T16:15:57.118Z,10.68
2022-12-14T16:21:02.775Z,16.00
2022-12-14T16:26:14.830Z,10.40
2022-12-14T16:31:22.319Z,16.52
2022-12-14T16:36:26.125Z,27.27
2022-12-14T16:41:44.847Z,7.75
2022-12-14T16:47:29.024Z,9.70
2022-12-14T16:52:33.137Z,14.40
2022-12-14T16:57:36.269Z,10.57
2022-12-14T17:02:44.804Z,13.18
2022-12-14T17:07:47.850Z,9.82
2022-12-14T17:12:56.704Z,18.58
2022-12-14T17:18:00.534Z,9.63
2022-12-14T17:23:04.767Z,8.95
2022-12-14T17:28:18.983Z,12.77
2022-12-14T17:33:21.919Z,10.25
2022-12-14T17:38:24.834Z,13.18
2022-12-14T17:43:28.661Z,4.75
2022-12-14T17:48:31.952Z,13.05
2022-12-14T17:53:36.375Z,10.05
2022-12-14T17:58:39.189Z,19.27
2022-12-14T18:03:42.406Z,20.90
2022-12-14T18:08:46.277Z,21.58
2022-12-14T18:13:49.425Z,12.52
2022-12-14T18:18:56.529Z,13.23
2022-12-14T18:23:59.387Z,12.55
2022-12-14T18:29:02.187Z,14.93
2022-12-14T18:34:05.422Z,13.30
2022-12-14T18:39:08.303Z,12.05
2022-12-14T18:44:11.418Z,9.02
2022-12-14T18:49:14.187Z,9.25
2022-12-14T18:54:17.075Z,10.75
2022-12-14T18:59:19.924Z,13.30
2022-12-14T19:04:25.522Z,7.50
2022-12-14T19:09:28.310Z,7.15
2022-12-14T19:14:31.169Z,5.53
2022-12-14T19:19:39.485Z,3.47
2022-12-14T19:24:52.161Z,8.77
2022-12-14T19:29:55.399Z,5.85
2022-12-14T19:34:58.238Z,6.63
2022-12-14T19:40:02.839Z,8.65
2022-12-14T19:45:06.935Z,7.32
2022-12-14T19:50:11.414Z,6.75
2022-12-14T19:55:14.302Z,4.82
2022-12-14T20:00:17.260Z,5.28
2022-12-14T20:05:22.018Z,7.68
2022-12-14T20:10:25.005Z,10.25
2022-12-14T20:15:27.938Z,10.15
2022-12-14T20:20:32.458Z,6.75
2022-12-14T20:25:35.362Z,10.45
2022-12-14T20:30:44.335Z,8.77
2022-12-14T20:35:51.961Z,8.20
2022-12-14T20:40:54.931Z,7.47
2022-12-14T20:45:57.943Z,10.07
2022-12-14T20:51:04.065Z,6.93
2022-12-14T20:56:09.215Z,7.57
2022-12-14T21:01:15.731Z,7.38
2022-12-14T21:06:20.758Z,9.75
2022-12-14T21:11:42.339Z,6.50
2022-12-14T21:16:45.193Z,7.13
2022-12-14T21:21:53.297Z,7.57
2022-12-14T21:26:56.909Z,6.82
2022-12-14T21:31:59.872Z,13.75
2022-12-14T21:37:02.663Z,7.75
2022-12-14T21:42:13.287Z,6.88
2022-12-14T21:52:23.049Z,7.57
2022-12-14T21:57:49.973Z,13.05
2022-12-14T22:02:53.550Z,2.88
2022-12-14T22:07:56.379Z,8.85
2022-12-14T22:12:59.070Z,4.18
2022-12-14T22:18:01.780Z,9.52
2022-12-14T22:23:04.683Z,6.15
2022-12-14T22:28:07.396Z,7.10
2022-12-14T22:33:10.427Z,9.00
2022-12-14T22:38:13.090Z,10.68
2022-12-14T22:43:15.770Z,5.13
2022-12-14T22:48:18.560Z,7.10
2022-12-14T22:53:21.328Z,9.98
2022-12-14T22:58:24.891Z,14.13
2022-12-14T23:03:28.002Z,5.65
2022-12-14T23:08:31.150Z,7.85
2022-12-14T23:13:52.261Z,11.27
2022-12-14T23:19:13.490Z,3.72
2022-12-14T23:24:34.742Z,11.95
2022-12-14T23:29:56.553Z,6.88
2022-12-14T23:35:17.827Z,10.60
2022-12-14T23:40:38.743Z,7.18
2022-12-14T23:46:01.987Z,3.83
2022-12-14T23:51:23.576Z,12.38
2022-12-14T23:56:45.005Z,11.45
